sensor_id;sensor_type;location;lat;lon;timestamp;P1;durP1;ratioP1;P2;durP2;ratioP2
71790;SDS011;59638;52.126;5.434;2023-06-26T00:00:44;7.60;;;6.90;;
71790;SDS011;59638;52.126;5.434;2023-06-26T00:03:13;7.13;;;6.53;;
71790;SDS011;59638;52.126;5.434;2023-06-26T00:05:41;7.75;;;6.93;;
71790;SDS011;59638;52.126;5.434;2023-06-26T00:08:08;7.47;;;6.28;;
71790;SDS011;59638;52.126;5.434;2023-06-26T00:10:35;8.45;;;7.45;;
71790;SDS011;59638;52.126;5.434;2023-06-26T00:13:02;8.10;;;7.40;;
71790;SDS011;59638;52.126;5.434;2023-06-26T00:15:29;7.53;;;6.85;;
71790;SDS011;59638;52.126;5.434;2023-06-26T00:17:58;8.45;;;7.22;;
71790;SDS011;59638;52.126;5.434;2023-06-26T00:20:25;7.18;;;6.47;;
71790;SDS011;59638;52.126;5.434;2023-06-26T00:22:51;7.40;;;6.80;;
71790;SDS011;59638;52.126;5.434;2023-06-26T00:25:19;7.30;;;6.60;;
71790;SDS011;59638;52.126;5.434;2023-06-26T00:27:46;7.72;;;7.00;;
71790;SDS011;59638;52.126;5.434;2023-06-26T00:30:12;9.70;;;6.93;;
71790;SDS011;59638;52.126;5.434;2023-06-26T00:32:39;6.82;;;6.32;;
71790;SDS011;59638;52.126;5.434;2023-06-26T00:35:06;8.18;;;6.53;;
71790;SDS011;59638;52.126;5.434;2023-06-26T00:37:32;6.80;;;6.20;;
71790;SDS011;59638;52.126;5.434;2023-06-26T00:39:59;7.10;;;6.40;;
71790;SDS011;59638;52.126;5.434;2023-06-26T00:42:25;7.15;;;6.45;;
71790;SDS011;59638;52.126;5.434;2023-06-26T00:44:52;6.50;;;5.40;;
71790;SDS011;59638;52.126;5.434;2023-06-26T00:47:18;6.15;;;5.60;;
71790;SDS011;59638;52.126;5.434;2023-06-26T00:49:45;7.40;;;5.77;;
71790;SDS011;59638;52.126;5.434;2023-06-26T00:52:11;11.65;;;5.35;;
71790;SDS011;59638;52.126;5.434;2023-06-26T00:54:38;6.55;;;5.95;;
71790;SDS011;59638;52.126;5.434;2023-06-26T00:57:05;10.50;;;5.32;;
71790;SDS011;59638;52.126;5.434;2023-06-26T00:59:32;6.95;;;6.03;;
71790;SDS011;59638;52.126;5.434;2023-06-26T01:01:58;6.27;;;5.40;;
71790;SDS011;59638;52.126;5.434;2023-06-26T01:04:25;6.20;;;5.80;;
71790;SDS011;59638;52.126;5.434;2023-06-26T01:06:53;6.15;;;5.43;;
71790;SDS011;59638;52.126;5.434;2023-06-26T01:09:21;6.28;;;5.65;;
71790;SDS011;59638;52.126;5.434;2023-06-26T01:11:48;6.60;;;6.00;;
71790;SDS011;59638;52.126;5.434;2023-06-26T01:14:15;6.07;;;5.57;;
71790;SDS011;59638;52.126;5.434;2023-06-26T01:16:41;5.95;;;5.45;;
71790;SDS011;59638;52.126;5.434;2023-06-26T01:19:18;6.05;;;5.47;;
71790;SDS011;59638;52.126;5.434;2023-06-26T01:24:31;8.90;;;5.90;;
71790;SDS011;59638;52.126;5.434;2023-06-26T01:26:59;6.80;;;4.30;;
71790;SDS011;59638;52.126;5.434;2023-06-26T01:29:29;4.97;;;4.47;;
71790;SDS011;59638;52.126;5.434;2023-06-26T01:31:59;6.90;;;4.70;;
71790;SDS011;59638;52.126;5.434;2023-06-26T01:34:27;4.38;;;4.07;;
71790;SDS011;59638;52.126;5.434;2023-06-26T01:36:53;5.72;;;3.53;;
71790;SDS011;59638;52.126;5.434;2023-06-26T01:39:19;4.50;;;3.87;;
71790;SDS011;59638;52.126;5.434;2023-06-26T01:41:46;4.28;;;3.80;;
71790;SDS011;59638;52.126;5.434;2023-06-26T01:47:01;4.38;;;3.97;;
71790;SDS011;59638;52.126;5.434;2023-06-26T01:52:29;4.43;;;3.23;;
71790;SDS011;59638;52.126;5.434;2023-06-26T01:55:35;3.22;;;2.92;;
71790;SDS011;59638;52.126;5.434;2023-06-26T01:58:08;4.28;;;3.10;;
71790;SDS011;59638;52.126;5.434;2023-06-26T02:00:35;3.83;;;3.00;;
71790;SDS011;59638;52.126;5.434;2023-06-26T02:03:03;4.55;;;2.97;;
71790;SDS011;59638;52.126;5.434;2023-06-26T02:05:31;4.20;;;2.73;;
71790;SDS011;59638;52.126;5.434;2023-06-26T02:07:58;4.82;;;2.83;;
71790;SDS011;59638;52.126;5.434;2023-06-26T02:10:24;4.78;;;2.97;;
71790;SDS011;59638;52.126;5.434;2023-06-26T02:12:51;5.75;;;3.00;;
71790;SDS011;59638;52.126;5.434;2023-06-26T02:15:17;3.22;;;2.67;;
71790;SDS011;59638;52.126;5.434;2023-06-26T02:17:44;4.70;;;2.50;;
71790;SDS011;59638;52.126;5.434;2023-06-26T02:20:14;5.50;;;2.45;;
71790;SDS011;59638;52.126;5.434;2023-06-26T02:22:41;7.05;;;2.45;;
71790;SDS011;59638;52.126;5.434;2023-06-26T02:25:09;3.40;;;2.00;;
71790;SDS011;59638;52.126;5.434;2023-06-26T02:27:36;3.35;;;2.00;;
71790;SDS011;59638;52.126;5.434;2023-06-26T02:30:03;4.50;;;2.37;;
71790;SDS011;59638;52.126;5.434;2023-06-26T02:32:30;3.22;;;1.95;;
71790;SDS011;59638;52.126;5.434;2023-06-26T02:34:56;5.53;;;1.92;;
71790;SDS011;59638;52.126;5.434;2023-06-26T02:37:22;6.53;;;1.90;;
71790;SDS011;59638;52.126;5.434;2023-06-26T02:39:49;4.88;;;2.80;;
71790;SDS011;59638;52.126;5.434;2023-06-26T02:42:15;3.60;;;1.63;;
71790;SDS011;59638;52.126;5.434;2023-06-26T02:44:42;5.15;;;1.80;;
71790;SDS011;59638;52.126;5.434;2023-06-26T02:47:08;5.65;;;1.90;;
71790;SDS011;59638;52.126;5.434;2023-06-26T02:49:35;5.32;;;2.28;;
71790;SDS011;59638;52.126;5.434;2023-06-26T02:52:02;4.45;;;1.88;;
71790;SDS011;59638;52.126;5.434;2023-06-26T02:54:29;5.73;;;1.97;;
71790;SDS011;59638;52.126;5.434;2023-06-26T02:56:55;2.83;;;1.80;;
71790;SDS011;59638;52.126;5.434;2023-06-26T02:59:21;4.55;;;2.28;;
71790;SDS011;59638;52.126;5.434;2023-06-26T03:01:48;5.90;;;1.88;;
71790;SDS011;59638;52.126;5.434;2023-06-26T03:04:14;5.10;;;2.20;;
71790;SDS011;59638;52.126;5.434;2023-06-26T03:06:41;11.17;;;2.53;;
71790;SDS011;59638;52.126;5.434;2023-06-26T03:09:08;5.05;;;1.92;;
71790;SDS011;59638;52.126;5.434;2023-06-26T03:11:35;5.97;;;2.38;;
71790;SDS011;59638;52.126;5.434;2023-06-26T03:14:01;6.97;;;1.83;;
71790;SDS011;59638;52.126;5.434;2023-06-26T03:16:28;4.13;;;1.70;;
71790;SDS011;59638;52.126;5.434;2023-06-26T03:18:54;6.63;;;2.70;;
71790;SDS011;59638;52.126;5.434;2023-06-26T03:21:20;5.60;;;2.03;;
71790;SDS011;59638;52.126;5.434;2023-06-26T03:23:47;4.70;;;1.40;;
71790;SDS011;59638;52.126;5.434;2023-06-26T03:26:14;7.50;;;1.67;;
71790;SDS011;59638;52.126;5.434;2023-06-26T03:28:40;5.38;;;2.03;;
71790;SDS011;59638;52.126;5.434;2023-06-26T03:31:08;7.13;;;2.23;;
71790;SDS011;59638;52.126;5.434;2023-06-26T03:33:34;7.00;;;1.83;;
71790;SDS011;59638;52.126;5.434;2023-06-26T03:36:01;6.82;;;2.13;;
71790;SDS011;59638;52.126;5.434;2023-06-26T03:38:27;7.95;;;2.42;;
71790;SDS011;59638;52.126;5.434;2023-06-26T03:40:54;10.45;;;1.95;;
71790;SDS011;59638;52.126;5.434;2023-06-26T03:43:20;5.53;;;2.10;;
71790;SDS011;59638;52.126;5.434;2023-06-26T03:45:47;6.45;;;2.08;;
71790;SDS011;59638;52.126;5.434;2023-06-26T03:48:13;5.20;;;1.98;;
71790;SDS011;59638;52.126;5.434;2023-06-26T03:50:40;12.70;;;2.30;;
71790;SDS011;59638;52.126;5.434;2023-06-26T03:53:07;6.38;;;1.92;;
71790;SDS011;59638;52.126;5.434;2023-06-26T03:55:33;9.53;;;2.20;;
71790;SDS011;59638;52.126;5.434;2023-06-26T03:58:00;7.43;;;2.58;;
71790;SDS011;59638;52.126;5.434;2023-06-26T04:00:27;9.85;;;2.42;;
71790;SDS011;59638;52.126;5.434;2023-06-26T04:02:54;8.77;;;2.78;;
71790;SDS011;59638;52.126;5.434;2023-06-26T04:05:20;7.28;;;1.98;;
71790;SDS011;59638;52.126;5.434;2023-06-26T04:07:50;7.87;;;1.93;;
71790;SDS011;59638;52.126;5.434;2023-06-26T04:10:17;8.15;;;1.88;;
71790;SDS011;59638;52.126;5.434;2023-06-26T04:12:44;8.63;;;1.90;;
71790;SDS011;59638;52.126;5.434;2023-06-26T04:15:11;7.47;;;2.25;;
71790;SDS011;59638;52.126;5.434;2023-06-26T04:17:37;9.52;;;2.50;;
71790;SDS011;59638;52.126;5.434;2023-06-26T04:20:04;4.97;;;1.90;;
71790;SDS011;59638;52.126;5.434;2023-06-26T04:22:35;7.32;;;2.10;;
71790;SDS011;59638;52.126;5.434;2023-06-26T04:25:02;4.43;;;1.85;;
71790;SDS011;59638;52.126;5.434;2023-06-26T04:27:29;11.43;;;1.98;;
71790;SDS011;59638;52.126;5.434;2023-06-26T04:30:02;11.90;;;2.45;;
71790;SDS011;59638;52.126;5.434;2023-06-26T04:32:29;11.33;;;2.17;;
71790;SDS011;59638;52.126;5.434;2023-06-26T04:34:55;3.25;;;1.85;;
71790;SDS011;59638;52.126;5.434;2023-06-26T04:37:22;7.53;;;2.92;;
71790;SDS011;59638;52.126;5.434;2023-06-26T04:39:50;13.55;;;2.42;;
71790;SDS011;59638;52.126;5.434;2023-06-26T04:42:17;5.05;;;2.03;;
71790;SDS011;59638;52.126;5.434;2023-06-26T04:44:45;10.33;;;1.73;;
71790;SDS011;59638;52.126;5.434;2023-06-26T04:47:11;6.30;;;1.77;;
71790;SDS011;59638;52.126;5.434;2023-06-26T04:49:38;6.35;;;2.03;;
71790;SDS011;59638;52.126;5.434;2023-06-26T04:52:04;8.70;;;2.20;;
71790;SDS011;59638;52.126;5.434;2023-06-26T04:54:31;5.60;;;2.05;;
71790;SDS011;59638;52.126;5.434;2023-06-26T04:56:57;5.57;;;1.67;;
71790;SDS011;59638;52.126;5.434;2023-06-26T04:59:26;9.02;;;2.80;;
71790;SDS011;59638;52.126;5.434;2023-06-26T05:01:52;4.18;;;1.80;;
71790;SDS011;59638;52.126;5.434;2023-06-26T05:04:18;10.15;;;2.17;;
71790;SDS011;59638;52.126;5.434;2023-06-26T05:06:45;6.53;;;1.88;;
71790;SDS011;59638;52.126;5.434;2023-06-26T05:09:11;6.83;;;1.97;;
71790;SDS011;59638;52.126;5.434;2023-06-26T05:11:38;5.57;;;1.60;;
71790;SDS011;59638;52.126;5.434;2023-06-26T05:14:05;4.80;;;1.52;;
71790;SDS011;59638;52.126;5.434;2023-06-26T05:16:33;4.72;;;1.83;;
71790;SDS011;59638;52.126;5.434;2023-06-26T05:19:03;4.80;;;1.58;;
71790;SDS011;59638;52.126;5.434;2023-06-26T05:21:29;4.93;;;1.13;;
71790;SDS011;59638;52.126;5.434;2023-06-26T05:23:57;4.95;;;1.70;;
71790;SDS011;59638;52.126;5.434;2023-06-26T05:26:25;5.72;;;1.35;;
71790;SDS011;59638;52.126;5.434;2023-06-26T05:28:52;5.50;;;1.30;;
71790;SDS011;59638;52.126;5.434;2023-06-26T05:31:18;5.50;;;1.50;;
71790;SDS011;59638;52.126;5.434;2023-06-26T05:33:45;3.90;;;1.00;;
71790;SDS011;59638;52.126;5.434;2023-06-26T05:36:13;7.32;;;0.90;;
71790;SDS011;59638;52.126;5.434;2023-06-26T05:38:42;4.03;;;1.38;;
71790;SDS011;59638;52.126;5.434;2023-06-26T05:41:09;3.33;;;1.08;;
71790;SDS011;59638;52.126;5.434;2023-06-26T05:43:35;4.65;;;1.13;;
71790;SDS011;59638;52.126;5.434;2023-06-26T05:46:02;4.10;;;1.23;;
71790;SDS011;59638;52.126;5.434;2023-06-26T05:48:28;4.53;;;1.33;;
71790;SDS011;59638;52.126;5.434;2023-06-26T05:50:55;7.35;;;1.10;;
71790;SDS011;59638;52.126;5.434;2023-06-26T05:53:22;3.00;;;1.00;;
71790;SDS011;59638;52.126;5.434;2023-06-26T05:55:48;3.05;;;1.00;;
71790;SDS011;59638;52.126;5.434;2023-06-26T05:58:15;4.23;;;1.07;;
71790;SDS011;59638;52.126;5.434;2023-06-26T06:00:42;2.13;;;0.70;;
71790;SDS011;59638;52.126;5.434;2023-06-26T06:03:09;3.03;;;0.95;;
71790;SDS011;59638;52.126;5.434;2023-06-26T06:05:37;3.53;;;0.70;;
71790;SDS011;59638;52.126;5.434;2023-06-26T06:08:03;2.42;;;1.05;;
71790;SDS011;59638;52.126;5.434;2023-06-26T06:10:30;1.87;;;0.70;;
71790;SDS011;59638;52.126;5.434;2023-06-26T06:12:57;2.30;;;0.60;;
71790;SDS011;59638;52.126;5.434;2023-06-26T06:15:23;3.25;;;0.50;;
71790;SDS011;59638;52.126;5.434;2023-06-26T06:17:50;2.20;;;0.70;;
71790;SDS011;59638;52.126;5.434;2023-06-26T06:20:17;3.08;;;0.75;;
71790;SDS011;59638;52.126;5.434;2023-06-26T06:22:45;1.47;;;0.50;;
71790;SDS011;59638;52.126;5.434;2023-06-26T06:25:12;2.08;;;0.55;;
71790;SDS011;59638;52.126;5.434;2023-06-26T06:27:38;2.70;;;0.30;;
71790;SDS011;59638;52.126;5.434;2023-06-26T06:30:05;2.53;;;0.40;;
71790;SDS011;59638;52.126;5.434;2023-06-26T06:32:34;1.65;;;0.50;;
71790;SDS011;59638;52.126;5.434;2023-06-26T06:35:00;2.97;;;0.83;;
71790;SDS011;59638;52.126;5.434;2023-06-26T06:37:35;3.25;;;0.60;;
71790;SDS011;59638;52.126;5.434;2023-06-26T06:40:03;4.60;;;0.85;;
71790;SDS011;59638;52.126;5.434;2023-06-26T06:42:32;4.13;;;0.50;;
71790;SDS011;59638;52.126;5.434;2023-06-26T06:44:59;2.90;;;0.60;;
71790;SDS011;59638;52.126;5.434;2023-06-26T06:47:27;2.83;;;0.63;;
71790;SDS011;59638;52.126;5.434;2023-06-26T06:49:54;4.45;;;0.73;;
71790;SDS011;59638;52.126;5.434;2023-06-26T06:52:20;2.03;;;0.60;;
71790;SDS011;59638;52.126;5.434;2023-06-26T06:54:53;4.75;;;0.52;;
71790;SDS011;59638;52.126;5.434;2023-06-26T06:57:21;2.97;;;0.75;;
71790;SDS011;59638;52.126;5.434;2023-06-26T06:59:48;1.97;;;0.70;;
71790;SDS011;59638;52.126;5.434;2023-06-26T07:02:16;1.33;;;0.57;;
71790;SDS011;59638;52.126;5.434;2023-06-26T07:04:43;2.60;;;0.68;;
71790;SDS011;59638;52.126;5.434;2023-06-26T07:07:10;2.05;;;0.57;;
71790;SDS011;59638;52.126;5.434;2023-06-26T07:09:36;2.10;;;0.80;;
71790;SDS011;59638;52.126;5.434;2023-06-26T07:12:03;1.67;;;0.40;;
71790;SDS011;59638;52.126;5.434;2023-06-26T07:14:30;2.95;;;0.85;;
71790;SDS011;59638;52.126;5.434;2023-06-26T07:16:56;3.75;;;0.80;;
71790;SDS011;59638;52.126;5.434;2023-06-26T07:19:23;2.10;;;0.90;;
71790;SDS011;59638;52.126;5.434;2023-06-26T07:21:49;2.15;;;0.80;;
71790;SDS011;59638;52.126;5.434;2023-06-26T07:24:16;3.57;;;0.77;;
71790;SDS011;59638;52.126;5.434;2023-06-26T07:26:42;5.82;;;0.80;;
71790;SDS011;59638;52.126;5.434;2023-06-26T07:29:12;2.35;;;0.95;;
71790;SDS011;59638;52.126;5.434;2023-06-26T07:31:39;3.15;;;0.65;;
71790;SDS011;59638;52.126;5.434;2023-06-26T07:34:05;5.40;;;0.88;;
71790;SDS011;59638;52.126;5.434;2023-06-26T07:36:32;4.37;;;1.20;;
71790;SDS011;59638;52.126;5.434;2023-06-26T07:38:58;5.18;;;1.10;;
71790;SDS011;59638;52.126;5.434;2023-06-26T07:41:25;6.57;;;1.20;;
71790;SDS011;59638;52.126;5.434;2023-06-26T07:43:51;1.80;;;1.13;;
71790;SDS011;59638;52.126;5.434;2023-06-26T07:46:18;5.60;;;1.02;;
71790;SDS011;59638;52.126;5.434;2023-06-26T07:48:44;2.23;;;0.77;;
71790;SDS011;59638;52.126;5.434;2023-06-26T07:51:10;1.85;;;0.82;;
71790;SDS011;59638;52.126;5.434;2023-06-26T07:53:37;5.75;;;1.10;;
71790;SDS011;59638;52.126;5.434;2023-06-26T07:56:03;7.05;;;1.30;;
71790;SDS011;59638;52.126;5.434;2023-06-26T07:58:30;2.13;;;1.38;;
71790;SDS011;59638;52.126;5.434;2023-06-26T08:00:57;3.10;;;0.93;;
71790;SDS011;59638;52.126;5.434;2023-06-26T08:03:23;3.70;;;0.82;;
71790;SDS011;59638;52.126;5.434;2023-06-26T08:06:00;3.40;;;1.17;;
71790;SDS011;59638;52.126;5.434;2023-06-26T08:08:27;3.28;;;1.27;;
71790;SDS011;59638;52.126;5.434;2023-06-26T08:10:53;4.82;;;1.02;;
71790;SDS011;59638;52.126;5.434;2023-06-26T08:13:20;4.47;;;1.23;;
71790;SDS011;59638;52.126;5.434;2023-06-26T08:15:46;2.25;;;1.40;;
71790;SDS011;59638;52.126;5.434;2023-06-26T08:18:13;4.57;;;1.48;;
71790;SDS011;59638;52.126;5.434;2023-06-26T08:20:39;6.05;;;1.20;;
71790;SDS011;59638;52.126;5.434;2023-06-26T08:23:06;4.93;;;1.10;;
71790;SDS011;59638;52.126;5.434;2023-06-26T08:25:33;2.23;;;1.20;;
71790;SDS011;59638;52.126;5.434;2023-06-26T08:27:59;4.35;;;1.30;;
71790;SDS011;59638;52.126;5.434;2023-06-26T08:30:26;3.10;;;1.38;;
71790;SDS011;59638;52.126;5.434;2023-06-26T08:32:57;1.80;;;0.73;;
71790;SDS011;59638;52.126;5.434;2023-06-26T08:35:24;7.30;;;1.35;;
71790;SDS011;59638;52.126;5.434;2023-06-26T08:37:50;5.83;;;0.80;;
71790;SDS011;59638;52.126;5.434;2023-06-26T08:40:17;1.95;;;0.60;;
71790;SDS011;59638;52.126;5.434;2023-06-26T08:42:47;2.08;;;0.70;;
71790;SDS011;59638;52.126;5.434;2023-06-26T08:45:13;1.83;;;0.77;;
71790;SDS011;59638;52.126;5.434;2023-06-26T08:47:40;5.85;;;0.77;;
71790;SDS011;59638;52.126;5.434;2023-06-26T08:50:10;1.83;;;0.90;;
71790;SDS011;59638;52.126;5.434;2023-06-26T08:55:24;2.78;;;0.50;;
71790;SDS011;59638;52.126;5.434;2023-06-26T08:57:54;2.70;;;1.08;;
71790;SDS011;59638;52.126;5.434;2023-06-26T09:00:20;5.80;;;0.63;;
71790;SDS011;59638;52.126;5.434;2023-06-26T09:02:47;8.40;;;0.53;;
71790;SDS011;59638;52.126;5.434;2023-06-26T09:05:14;1.90;;;0.43;;
71790;SDS011;59638;52.126;5.434;2023-06-26T09:07:41;5.28;;;0.50;;
71790;SDS011;59638;52.126;5.434;2023-06-26T09:10:08;3.72;;;0.70;;
71790;SDS011;59638;52.126;5.434;2023-06-26T09:12:35;1.85;;;0.63;;
71790;SDS011;59638;52.126;5.434;2023-06-26T09:15:03;5.67;;;0.63;;
71790;SDS011;59638;52.126;5.434;2023-06-26T09:17:38;1.45;;;0.40;;
71790;SDS011;59638;52.126;5.434;2023-06-26T09:20:05;2.17;;;0.60;;
71790;SDS011;59638;52.126;5.434;2023-06-26T09:22:37;3.30;;;0.40;;
71790;SDS011;59638;52.126;5.434;2023-06-26T09:25:05;1.58;;;0.47;;
71790;SDS011;59638;52.126;5.434;2023-06-26T09:27:32;4.53;;;0.70;;
71790;SDS011;59638;52.126;5.434;2023-06-26T09:29:59;2.47;;;0.30;;
71790;SDS011;59638;52.126;5.434;2023-06-26T09:32:25;12.57;;;0.77;;
71790;SDS011;59638;52.126;5.434;2023-06-26T09:34:52;1.15;;;0.38;;
71790;SDS011;59638;52.126;5.434;2023-06-26T09:37:19;1.90;;;0.40;;
71790;SDS011;59638;52.126;5.434;2023-06-26T09:39:46;2.60;;;0.60;;
71790;SDS011;59638;52.126;5.434;2023-06-26T09:42:15;2.60;;;0.52;;
71790;SDS011;59638;52.126;5.434;2023-06-26T09:44:46;6.85;;;0.70;;
71790;SDS011;59638;52.126;5.434;2023-06-26T09:47:17;5.85;;;0.80;;
71790;SDS011;59638;52.126;5.434;2023-06-26T09:49:45;5.38;;;0.90;;
71790;SDS011;59638;52.126;5.434;2023-06-26T09:52:15;3.20;;;0.60;;
71790;SDS011;59638;52.126;5.434;2023-06-26T09:54:43;2.25;;;0.43;;
71790;SDS011;59638;52.126;5.434;2023-06-26T09:57:13;1.90;;;0.60;;
71790;SDS011;59638;52.126;5.434;2023-06-26T09:59:42;2.75;;;0.60;;
71790;SDS011;59638;52.126;5.434;2023-06-26T10:02:11;4.00;;;1.27;;
71790;SDS011;59638;52.126;5.434;2023-06-26T10:04:38;1.43;;;0.47;;
71790;SDS011;59638;52.126;5.434;2023-06-26T10:07:06;3.13;;;0.43;;
71790;SDS011;59638;52.126;5.434;2023-06-26T10:09:37;4.13;;;0.40;;
71790;SDS011;59638;52.126;5.434;2023-06-26T10:12:11;4.57;;;0.50;;
71790;SDS011;59638;52.126;5.434;2023-06-26T10:14:55;2.55;;;0.30;;
71790;SDS011;59638;52.126;5.434;2023-06-26T10:17:24;4.83;;;0.50;;
71790;SDS011;59638;52.126;5.434;2023-06-26T10:19:53;2.08;;;0.55;;
71790;SDS011;59638;52.126;5.434;2023-06-26T10:22:24;4.20;;;0.75;;
71790;SDS011;59638;52.126;5.434;2023-06-26T10:24:53;2.85;;;0.50;;
71790;SDS011;59638;52.126;5.434;2023-06-26T10:27:25;5.28;;;0.35;;
71790;SDS011;59638;52.126;5.434;2023-06-26T10:29:59;15.43;;;0.60;;
71790;SDS011;59638;52.126;5.434;2023-06-26T10:32:29;0.98;;;0.20;;
71790;SDS011;59638;52.126;5.434;2023-06-26T10:34:56;4.38;;;0.40;;
71790;SDS011;59638;52.126;5.434;2023-06-26T10:37:41;3.42;;;0.40;;
71790;SDS011;59638;52.126;5.434;2023-06-26T10:40:21;4.85;;;0.60;;
71790;SDS011;59638;52.126;5.434;2023-06-26T10:42:51;2.97;;;1.03;;
71790;SDS011;59638;52.126;5.434;2023-06-26T10:45:19;1.80;;;0.40;;
71790;SDS011;59638;52.126;5.434;2023-06-26T10:47:47;1.77;;;0.32;;
71790;SDS011;59638;52.126;5.434;2023-06-26T10:50:24;1.20;;;0.30;;
71790;SDS011;59638;52.126;5.434;2023-06-26T10:53:10;3.30;;;0.47;;
71790;SDS011;59638;52.126;5.434;2023-06-26T10:55:48;4.13;;;0.53;;
71790;SDS011;59638;52.126;5.434;2023-06-26T11:03:42;3.42;;;0.50;;
71790;SDS011;59638;52.126;5.434;2023-06-26T11:06:13;1.92;;;0.47;;
71790;SDS011;59638;52.126;5.434;2023-06-26T11:08:54;1.27;;;0.30;;
71790;SDS011;59638;52.126;5.434;2023-06-26T11:14:21;1.58;;;0.50;;
71790;SDS011;59638;52.126;5.434;2023-06-26T11:16:49;2.35;;;0.45;;
71790;SDS011;59638;52.126;5.434;2023-06-26T11:19:19;2.50;;;0.25;;
71790;SDS011;59638;52.126;5.434;2023-06-26T11:21:46;3.07;;;0.27;;
71790;SDS011;59638;52.126;5.434;2023-06-26T11:24:13;1.33;;;0.28;;
71790;SDS011;59638;52.126;5.434;2023-06-26T11:26:40;1.65;;;0.52;;
71790;SDS011;59638;52.126;5.434;2023-06-26T11:29:08;1.27;;;0.30;;
71790;SDS011;59638;52.126;5.434;2023-06-26T11:31:36;1.70;;;0.40;;
71790;SDS011;59638;52.126;5.434;2023-06-26T11:34:04;6.83;;;0.30;;
71790;SDS011;59638;52.126;5.434;2023-06-26T11:36:33;4.28;;;0.68;;
71790;SDS011;59638;52.126;5.434;2023-06-26T11:39:06;1.10;;;0.32;;
71790;SDS011;59638;52.126;5.434;2023-06-26T11:41:33;2.22;;;0.30;;
71790;SDS011;59638;52.126;5.434;2023-06-26T11:44:02;1.25;;;0.40;;
71790;SDS011;59638;52.126;5.434;2023-06-26T11:46:30;3.37;;;0.50;;
71790;SDS011;59638;52.126;5.434;2023-06-26T11:48:58;1.25;;;0.30;;
71790;SDS011;59638;52.126;5.434;2023-06-26T11:51:28;1.60;;;0.60;;
71790;SDS011;59638;52.126;5.434;2023-06-26T11:53:54;1.23;;;0.30;;
71790;SDS011;59638;52.126;5.434;2023-06-26T11:56:21;4.30;;;0.40;;
71790;SDS011;59638;52.126;5.434;2023-06-26T12:01:47;0.88;;;0.20;;
71790;SDS011;59638;52.126;5.434;2023-06-26T12:04:16;4.00;;;0.93;;
71790;SDS011;59638;52.126;5.434;2023-06-26T12:06:50;6.45;;;1.67;;
71790;SDS011;59638;52.126;5.434;2023-06-26T12:09:23;2.05;;;0.43;;
71790;SDS011;59638;52.126;5.434;2023-06-26T12:11:52;3.17;;;0.47;;
71790;SDS011;59638;52.126;5.434;2023-06-26T12:14:20;3.30;;;0.55;;
71790;SDS011;59638;52.126;5.434;2023-06-26T12:16:49;2.55;;;0.40;;
71790;SDS011;59638;52.126;5.434;2023-06-26T12:19:16;1.05;;;0.30;;
71790;SDS011;59638;52.126;5.434;2023-06-26T12:21:46;2.45;;;0.40;;
71790;SDS011;59638;52.126;5.434;2023-06-26T12:24:15;0.90;;;0.40;;
71790;SDS011;59638;52.126;5.434;2023-06-26T12:26:47;2.40;;;0.60;;
71790;SDS011;59638;52.126;5.434;2023-06-26T12:29:16;2.08;;;0.35;;
71790;SDS011;59638;52.126;5.434;2023-06-26T12:31:45;1.13;;;0.30;;
71790;SDS011;59638;52.126;5.434;2023-06-26T12:34:17;1.30;;;0.43;;
71790;SDS011;59638;52.126;5.434;2023-06-26T12:36:48;1.20;;;0.37;;
71790;SDS011;59638;52.126;5.434;2023-06-26T12:39:17;0.80;;;0.30;;
71790;SDS011;59638;52.126;5.434;2023-06-26T12:41:46;1.65;;;0.30;;
71790;SDS011;59638;52.126;5.434;2023-06-26T12:46:53;2.45;;;0.40;;
71790;SDS011;59638;52.126;5.434;2023-06-26T12:49:28;1.93;;;0.50;;
71790;SDS011;59638;52.126;5.434;2023-06-26T12:52:05;1.92;;;0.40;;
71790;SDS011;59638;52.126;5.434;2023-06-26T12:54:33;3.67;;;1.13;;
71790;SDS011;59638;52.126;5.434;2023-06-26T12:57:01;5.45;;;0.60;;
71790;SDS011;59638;52.126;5.434;2023-06-26T12:59:27;0.95;;;0.45;;
71790;SDS011;59638;52.126;5.434;2023-06-26T13:01:54;2.47;;;0.53;;
71790;SDS011;59638;52.126;5.434;2023-06-26T13:04:20;3.63;;;1.33;;
71790;SDS011;59638;52.126;5.434;2023-06-26T13:06:47;2.58;;;0.35;;
71790;SDS011;59638;52.126;5.434;2023-06-26T13:09:13;4.15;;;0.30;;
71790;SDS011;59638;52.126;5.434;2023-06-26T13:11:40;1.88;;;0.38;;
71790;SDS011;59638;52.126;5.434;2023-06-26T13:14:07;2.60;;;0.20;;
71790;SDS011;59638;52.126;5.434;2023-06-26T13:16:40;2.28;;;0.20;;
71790;SDS011;59638;52.126;5.434;2023-06-26T13:19:07;4.35;;;0.40;;
71790;SDS011;59638;52.126;5.434;2023-06-26T13:21:34;1.27;;;0.30;;
71790;SDS011;59638;52.126;5.434;2023-06-26T13:24:00;1.52;;;0.30;;
71790;SDS011;59638;52.126;5.434;2023-06-26T13:26:29;2.13;;;0.43;;
71790;SDS011;59638;52.126;5.434;2023-06-26T13:28:59;1.77;;;0.28;;
71790;SDS011;59638;52.126;5.434;2023-06-26T13:31:25;1.35;;;0.30;;
71790;SDS011;59638;52.126;5.434;2023-06-26T13:33:52;5.43;;;0.50;;
71790;SDS011;59638;52.126;5.434;2023-06-26T13:36:19;4.47;;;0.38;;
71790;SDS011;59638;52.126;5.434;2023-06-26T13:38:46;0.90;;;0.30;;
71790;SDS011;59638;52.126;5.434;2023-06-26T13:41:12;2.30;;;0.20;;
71790;SDS011;59638;52.126;5.434;2023-06-26T13:43:39;1.30;;;0.30;;
71790;SDS011;59638;52.126;5.434;2023-06-26T13:46:06;1.63;;;0.30;;
71790;SDS011;59638;52.126;5.434;2023-06-26T13:48:33;1.90;;;0.20;;
71790;SDS011;59638;52.126;5.434;2023-06-26T13:50:59;0.50;;;0.10;;
71790;SDS011;59638;52.126;5.434;2023-06-26T13:53:26;2.35;;;0.22;;
71790;SDS011;59638;52.126;5.434;2023-06-26T13:55:53;2.22;;;0.30;;
71790;SDS011;59638;52.126;5.434;2023-06-26T13:58:19;0.93;;;0.20;;
71790;SDS011;59638;52.126;5.434;2023-06-26T14:00:50;0.95;;;0.30;;
71790;SDS011;59638;52.126;5.434;2023-06-26T14:03:19;1.10;;;0.20;;
71790;SDS011;59638;52.126;5.434;2023-06-26T14:05:45;1.00;;;0.52;;
71790;SDS011;59638;52.126;5.434;2023-06-26T14:08:12;1.48;;;0.20;;
71790;SDS011;59638;52.126;5.434;2023-06-26T14:10:39;0.82;;;0.20;;
71790;SDS011;59638;52.126;5.434;2023-06-26T14:13:06;1.73;;;0.20;;
71790;SDS011;59638;52.126;5.434;2023-06-26T14:15:32;4.63;;;0.20;;
71790;SDS011;59638;52.126;5.434;2023-06-26T14:17:59;1.38;;;0.30;;
71790;SDS011;59638;52.126;5.434;2023-06-26T14:20:25;1.65;;;0.30;;
71790;SDS011;59638;52.126;5.434;2023-06-26T14:22:53;1.42;;;0.35;;
71790;SDS011;59638;52.126;5.434;2023-06-26T14:25:20;5.60;;;0.30;;
71790;SDS011;59638;52.126;5.434;2023-06-26T14:27:46;1.40;;;0.40;;
71790;SDS011;59638;52.126;5.434;2023-06-26T14:30:13;2.00;;;0.15;;
71790;SDS011;59638;52.126;5.434;2023-06-26T14:32:40;1.33;;;0.20;;
71790;SDS011;59638;52.126;5.434;2023-06-26T14:35:07;4.32;;;0.20;;
71790;SDS011;59638;52.126;5.434;2023-06-26T14:37:35;1.55;;;0.30;;
71790;SDS011;59638;52.126;5.434;2023-06-26T14:40:02;2.37;;;0.10;;
71790;SDS011;59638;52.126;5.434;2023-06-26T14:42:29;2.90;;;0.20;;
71790;SDS011;59638;52.126;5.434;2023-06-26T14:44:56;4.13;;;0.20;;
71790;SDS011;59638;52.126;5.434;2023-06-26T14:47:23;0.90;;;0.30;;
71790;SDS011;59638;52.126;5.434;2023-06-26T14:49:50;1.05;;;0.17;;
71790;SDS011;59638;52.126;5.434;2023-06-26T14:52:16;1.87;;;0.20;;
71790;SDS011;59638;52.126;5.434;2023-06-26T14:54:43;2.67;;;0.20;;
71790;SDS011;59638;52.126;5.434;2023-06-26T14:57:09;3.28;;;0.20;;
71790;SDS011;59638;52.126;5.434;2023-06-26T14:59:36;1.05;;;0.10;;
71790;SDS011;59638;52.126;5.434;2023-06-26T15:02:03;1.52;;;0.20;;
71790;SDS011;59638;52.126;5.434;2023-06-26T15:04:31;2.83;;;0.20;;
71790;SDS011;59638;52.126;5.434;2023-06-26T15:06:58;0.95;;;0.10;;
71790;SDS011;59638;52.126;5.434;2023-06-26T15:09:24;1.13;;;0.20;;
71790;SDS011;59638;52.126;5.434;2023-06-26T15:11:51;0.82;;;0.20;;
71790;SDS011;59638;52.126;5.434;2023-06-26T15:14:18;0.60;;;0.20;;
71790;SDS011;59638;52.126;5.434;2023-06-26T15:16:44;1.37;;;0.67;;